Time;durP1;ratioP1;P1;durP2;ratioP2;P2;SDS_P1;SDS_P2;PMS_P1;PMS_P2;Temp;Humidity;BMP_temperature;BMP_pressure;BME280_temperature;BME280_humidity;BME280_pressure;Samples;Min_cycle;Max_cycle;Signal;HPM_P1;HPM_P2
2023/04/11 01:25:30;;;;;;;4.32;3.92;;;8.40;87.50;;;;;;6147257;23;20380;-84
2023/04/11 01:27:57;;;;;;;3.33;3.03;;;8.30;91.10;;;;;;6160987;23;20368;-83
2023/04/11 01:30:24;;;;;;;3.60;2.97;;;8.30;89.10;;;;;;6159335;23;20838;-84
2023/04/11 01:32:51;;;;;;;3.55;2.88;;;8.30;90.30;;;;;;6160690;23;20369;-83
2023/04/11 01:35:18;;;;;;;4.13;3.67;;;8.20;87.60;;;;;;6160541;23;20364;-84
2023/04/11 01:37:45;;;;;;;3.33;3.03;;;8.20;90.40;;;;;;6161741;23;20373;-84
2023/04/11 01:40:16;;;;;;;3.40;3.07;;;8.20;90.20;;;;;;6139020;23;20493;-84
2023/04/11 01:42:45;;;;;;;3.35;3.05;;;8.10;90.70;;;;;;6165319;23;20419;-84
2023/04/11 01:45:12;;;;;;;3.20;2.90;;;8.10;89.50;;;;;;6164590;23;20679;-85
2023/04/11 01:47:39;;;;;;;3.50;3.20;;;8.10;89.60;;;;;;6169424;23;20698;-84
2023/04/11 01:50:07;;;;;;;3.20;2.90;;;8.10;90.70;;;;;;6170543;23;20373;-83
2023/04/11 01:52:34;;;;;;;2.47;2.30;;;8.00;91.80;;;;;;6170250;23;20424;-84
2023/04/11 01:55:01;;;;;;;2.88;2.67;;;8.00;90.50;;;;;;6195148;23;20376;-84
2023/04/11 01:57:27;;;;;;;3.70;3.40;;;8.00;90.10;;;;;;6173323;23;20379;-84
2023/04/11 01:59:54;;;;;;;3.35;3.05;;;7.90;90.80;;;;;;6165434;23;20372;-84
2023/04/11 02:02:21;;;;;;;3.35;3.05;;;7.90;91.30;;;;;;6168067;23;20436;-84
2023/04/11 02:04:48;;;;;;;3.10;2.80;;;7.90;91.20;;;;;;6142649;23;20402;-84
2023/04/11 02:07:15;;;;;;;4.13;3.35;;;7.90;91.00;;;;;;6133829;23;20425;-84
2023/04/11 02:09:42;;;;;;;3.70;2.88;;;7.90;93.60;;;;;;6136875;23;20701;-84
2023/04/11 02:12:09;;;;;;;3.53;3.23;;;7.80;91.60;;;;;;6132283;23;20373;-84
2023/04/11 02:14:44;;;;;;;2.95;2.75;;;7.80;90.80;;;;;;6133798;23;20393;-84
2023/04/11 02:17:11;;;;;;;2.90;2.65;;;7.70;91.20;;;;;;6132137;23;20449;-83
2023/04/11 02:19:44;;;;;;;3.07;2.77;;;7.70;90.80;;;;;;6134358;23;20393;-84
2023/04/11 02:22:11;;;;;;;2.67;2.47;;;7.70;91.20;;;;;;6138797;23;20374;-84
2023/04/11 02:24:38;;;;;;;4.47;3.67;;;7.70;90.80;;;;;;6136986;23;20374;-84
2023/04/11 02:27:06;;;;;;;3.67;2.90;;;7.70;92.30;;;;;;6137128;23;20374;-84
2023/04/11 02:29:33;;;;;;;3.53;3.17;;;7.70;92.50;;;;;;6136697;23;20373;-84
2023/04/11 02:32:00;;;;;;;3.83;3.50;;;7.70;92.20;;;;;;6136850;23;20374;-83
2023/04/11 02:34:27;;;;;;;3.45;3.15;;;7.60;93.40;;;;;;6139051;23;20437;-84
2023/04/11 02:36:54;;;;;;;3.38;3.08;;;7.60;92.50;;;;;;6132065;23;20385;-84
2023/04/11 02:39:24;;;;;;;3.42;3.13;;;7.60;92.80;;;;;;6134019;23;20377;-84
2023/04/11 02:41:51;;;;;;;2.72;2.53;;;7.50;92.90;;;;;;6132180;23;20392;-84
2023/04/11 02:44:18;;;;;;;2.85;2.60;;;7.50;92.60;;;;;;6127598;23;20441;-84
2023/04/11 02:46:45;;;;;;;2.90;2.70;;;7.50;93.10;;;;;;6128549;23;20382;-84
2023/04/11 02:49:12;;;;;;;3.60;3.30;;;7.40;92.50;;;;;;6130185;23;20423;-84
2023/04/11 02:51:39;;;;;;;3.87;3.37;;;7.40;92.70;;;;;;6130113;23;20374;-81
2023/04/11 02:54:07;;;;;;;3.63;3.33;;;7.40;93.00;;;;;;6126303;23;20382;-82
2023/04/11 02:56:37;;;;;;;3.88;3.47;;;7.40;93.70;;;;;;6127235;23;20390;-82
2023/04/11 02:59:05;;;;;;;3.90;3.55;;;7.40;94.70;;;;;;6133816;23;20413;-85
2023/04/11 03:01:32;;;;;;;4.25;3.88;;;7.40;93.40;;;;;;6156827;23;20693;-84
2023/04/11 03:03:59;;;;;;;4.47;4.07;;;7.40;94.50;;;;;;6131525;23;20423;-84
2023/04/11 03:06:27;;;;;;;4.63;4.00;;;7.30;94.60;;;;;;6133773;23;20700;-84
2023/04/11 03:08:54;;;;;;;5.35;4.13;;;7.30;95.10;;;;;;6132073;23;20748;-85
2023/04/11 03:11:22;;;;;;;4.20;3.80;;;7.30;95.10;;;;;;6157886;23;20429;-84
2023/04/11 03:13:48;;;;;;;5.00;4.60;;;7.30;94.70;;;;;;6131466;23;20712;-84
2023/04/11 03:16:15;;;;;;;5.22;4.53;;;7.30;96.10;;;;;;6131459;23;20374;-85
2023/04/11 03:18:42;;;;;;;5.57;5.07;;;7.30;96.20;;;;;;6133846;23;20413;-84
2023/04/11 03:21:09;;;;;;;5.75;5.18;;;7.30;95.90;;;;;;6134395;23;20405;-84
2023/04/11 03:23:37;;;;;;;6.75;5.85;;;7.30;97.10;;;;;;6135764;23;20433;-84
2023/04/11 03:26:05;;;;;;;7.10;5.90;;;7.20;96.60;;;;;;6129473;23;20395;-84
2023/04/11 03:28:32;;;;;;;7.33;5.97;;;7.20;95.70;;;;;;6153517;23;20383;-85
2023/04/11 03:30:59;;;;;;;9.52;7.18;;;7.20;95.40;;;;;;6150354;23;20380;-84
2023/04/11 03:33:26;;;;;;;7.47;6.57;;;7.20;97.00;;;;;;6131130;23;20431;-84
2023/04/11 03:35:53;;;;;;;7.07;6.18;;;7.20;97.60;;;;;;6129542;23;20376;-84
2023/04/11 03:38:20;;;;;;;7.45;6.63;;;7.20;97.00;;;;;;6151782;23;20370;-84
2023/04/11 03:40:47;;;;;;;6.47;5.65;;;7.20;99.80;;;;;;6152408;23;20376;-84
2023/04/11 03:43:16;;;;;;;6.35;5.75;;;7.20;99.00;;;;;;6150504;23;20387;-84
2023/04/11 03:45:43;;;;;;;5.80;5.30;;;7.20;97.80;;;;;;6149015;23;20427;-84
2023/04/11 03:48:09;;;;;;;6.22;5.63;;;7.20;98.10;;;;;;6148781;23;20372;-84
2023/04/11 03:50:37;;;;;;;6.50;5.85;;;7.20;98.40;;;;;;6150210;23;20748;-85
2023/04/11 03:53:04;;;;;;;5.28;4.78;;;7.10;99.90;;;;;;6149936;23;20384;-84
2023/04/11 03:55:31;;;;;;;5.93;5.37;;;7.10;98.50;;;;;;6151231;23;20463;-83
2023/04/11 03:57:58;;;;;;;6.03;4.97;;;7.10;98.40;;;;;;6152252;23;20403;-83
2023/04/11 04:00:26;;;;;;;4.88;4.47;;;7.00;98.10;;;;;;6151700;23;20418;-85
2023/04/11 04:02:53;;;;;;;4.78;4.35;;;7.00;98.10;;;;;;6153360;23;20395;-83
2023/04/11 04:05:20;;;;;;;4.72;4.28;;;6.90;98.30;;;;;;6152558;23;20363;-84
2023/04/11 04:07:47;;;;;;;4.47;4.07;;;6.90;97.40;;;;;;6156727;23;20376;-84
2023/04/11 04:10:14;;;;;;;4.88;4.47;;;6.80;97.00;;;;;;6156488;23;20380;-83
2023/04/11 04:12:41;;;;;;;4.40;3.97;;;6.80;97.20;;;;;;6156981;23;20396;-84
2023/04/11 04:15:08;;;;;;;4.43;4.03;;;6.80;98.90;;;;;;6153273;23;20399;-83
2023/04/11 04:17:35;;;;;;;4.18;3.78;;;6.80;97.50;;;;;;6154058;23;20368;-83
2023/04/11 04:20:03;;;;;;;4.45;4.05;;;6.70;97.10;;;;;;6152883;23;20383;-82
2023/04/11 04:22:30;;;;;;;4.80;4.40;;;6.70;97.90;;;;;;6154066;23;20367;-83
2023/04/11 04:24:56;;;;;;;5.18;4.38;;;6.70;97.80;;;;;;6129608;23;20399;-86
2023/04/11 04:27:24;;;;;;;4.95;4.32;;;6.70;97.80;;;;;;6127248;23;20355;-85
2023/04/11 04:29:51;;;;;;;4.60;4.20;;;6.70;97.80;;;;;;6130482;23;20742;-83
2023/04/11 04:32:29;;;;;;;4.90;4.40;;;6.70;98.30;;;;;;6129075;23;21342;-84
2023/04/11 04:34:57;;;;;;;4.65;4.25;;;6.60;97.70;;;;;;6130391;23;20703;-85
2023/04/11 04:37:25;;;;;;;4.70;4.30;;;6.60;98.30;;;;;;6131307;23;20698;-83
2023/04/11 04:40:00;;;;;;;4.55;4.15;;;6.60;98.50;;;;;;6132830;23;20375;-84
2023/04/11 04:42:28;;;;;;;5.82;5.22;;;6.60;97.90;;;;;;6156736;23;20363;-83
2023/04/11 04:44:56;;;;;;;4.88;4.35;;;6.60;97.60;;;;;;6134603;23;20382;-85
2023/04/11 04:47:24;;;;;;;5.07;4.60;;;6.60;98.50;;;;;;6131503;23;20375;-84
2023/04/11 04:49:56;;;;;;;4.60;4.20;;;6.60;98.20;;;;;;6134645;23;20376;-84
2023/04/11 04:52:24;;;;;;;5.55;5.05;;;6.60;98.50;;;;;;6133570;23;20434;-83
2023/04/11 04:54:52;;;;;;;5.10;4.60;;;6.50;98.30;;;;;;6129603;23;20372;-84
2023/04/11 04:57:20;;;;;;;6.23;5.67;;;6.60;97.70;;;;;;6137243;23;20372;-84
2023/04/11 04:59:46;;;;;;;7.40;6.70;;;6.50;98.00;;;;;;6139930;23;20378;-84
2023/04/11 05:02:15;;;;;;;6.32;5.70;;;6.50;99.90;;;;;;6132395;23;20406;-84
2023/04/11 05:04:45;;;;;;;5.60;5.10;;;6.50;99.90;;;;;;6131785;23;20379;-83
2023/04/11 05:07:15;;;;;;;5.53;5.03;;;6.50;99.30;;;;;;6132028;23;20383;-83
2023/04/11 05:09:42;;;;;;;6.18;5.57;;;6.50;99.10;;;;;;6132237;23;20379;-83
2023/04/11 05:12:09;;;;;;;5.65;5.15;;;6.40;99.90;;;;;;6131222;23;20380;-82
2023/04/11 05:14:36;;;;;;;6.35;5.75;;;6.40;99.60;;;;;;6133417;23;20392;-83
2023/04/11 05:17:02;;;;;;;6.10;5.50;;;6.40;99.90;;;;;;6137320;23;20383;-84
2023/04/11 05:19:31;;;;;;;7.13;6.43;;;6.40;99.90;;;;;;6129733;23;20757;-84
2023/04/11 05:21:58;;;;;;;6.10;5.50;;;6.40;99.90;;;;;;6131898;23;20460;-83
2023/04/11 05:24:25;;;;;;;5.93;5.38;;;6.30;99.90;;;;;;6135905;23;20376;-84
2023/04/11 05:26:52;;;;;;;6.85;6.13;;;6.40;99.90;;;;;;6138957;23;20407;-84
2023/04/11 05:29:19;;;;;;;7.13;6.43;;;6.40;99.90;;;;;;6129634;23;20376;-85
2023/04/11 05:31:46;;;;;;;6.10;5.53;;;6.40;99.90;;;;;;6140984;23;20382;-84
2023/04/11 05:34:15;;;;;;;6.53;5.93;;;6.40;99.90;;;;;;6141164;23;20387;-85
2023/04/11 05:36:45;;;;;;;6.35;5.82;;;6.40;99.90;;;;;;6145979;23;20364;-83
2023/04/11 05:39:12;;;;;;;6.43;5.65;;;6.40;99.90;;;;;;6144963;23;20379;-82
2023/04/11 05:41:39;;;;;;;6.15;5.55;;;6.40;99.90;;;;;;6141086;23;20383;-84
2023/04/11 05:44:06;;;;;;;7.45;6.70;;;6.40;99.90;;;;;;6144159;23;20415;-84
2023/04/11 05:46:35;;;;;;;6.45;5.85;;;6.50;99.90;;;;;;6145845;23;20429;-84
2023/04/11 05:49:03;;;;;;;5.87;5.27;;;6.60;99.90;;;;;;6140389;23;20384;-83
2023/04/11 05:51:30;;;;;;;7.30;6.28;;;6.60;99.90;;;;;;6134849;23;20376;-83
2023/04/11 05:53:57;;;;;;;6.15;5.55;;;6.70;99.90;;;;;;6135278;23;20372;-84
2023/04/11 05:56:24;;;;;;;7.25;6.50;;;6.70;99.90;;;;;;6133890;23;20433;-84
2023/04/11 05:58:51;;;;;;;7.90;7.10;;;6.80;99.90;;;;;;6133317;23;20372;-84
2023/04/11 06:01:18;;;;;;;8.03;6.80;;;6.90;99.90;;;;;;6133704;23;20383;-83
2023/04/11 06:03:45;;;;;;;8.50;6.65;;;6.90;99.90;;;;;;6131381;23;20454;-84
2023/04/11 06:06:13;;;;;;;6.53;5.90;;;7.00;99.90;;;;;;6128761;23;20372;-83
2023/04/11 06:08:40;;;;;;;7.38;6.55;;;7.10;99.90;;;;;;6129770;23;20386;-85
2023/04/11 06:11:07;;;;;;;8.15;6.57;;;7.20;99.90;;;;;;6129883;23;20387;-84
2023/04/11 06:13:34;;;;;;;10.82;9.00;;;7.20;99.90;;;;;;6130113;23;20378;-84
2023/04/11 06:16:01;;;;;;;10.57;7.18;;;7.30;99.90;;;;;;6134005;23;20380;-84
2023/04/11 06:18:28;;;;;;;12.85;7.68;;;7.40;99.90;;;;;;6130461;23;20407;-84
2023/04/11 06:20:55;;;;;;;11.33;7.53;;;7.40;99.90;;;;;;6131974;23;20432;-84
2023/04/11 06:23:22;;;;;;;8.60;6.82;;;7.50;99.90;;;;;;6126861;23;20854;-84
2023/04/11 06:25:49;;;;;;;9.68;6.90;;;7.70;99.90;;;;;;6131453;23;20364;-83
2023/04/11 06:28:16;;;;;;;9.38;7.35;;;7.70;99.90;;;;;;6130698;23;20367;-83
2023/04/11 06:30:43;;;;;;;7.85;6.93;;;7.90;99.90;;;;;;6129816;23;20368;-84
2023/04/11 06:33:10;;;;;;;8.18;6.90;;;8.00;99.90;;;;;;6128434;23;20747;-84
2023/04/11 06:35:37;;;;;;;9.05;7.57;;;8.20;99.90;;;;;;6127056;23;20447;-84
2023/04/11 06:38:04;;;;;;;7.32;6.13;;;8.30;99.90;;;;;;6128100;23;20391;-84
2023/04/11 06:40:31;;;;;;;9.13;7.03;;;8.40;99.90;;;;;;6125339;23;20913;-84
2023/04/11 06:42:59;;;;;;;7.67;6.67;;;8.60;99.90;;;;;;6126570;23;20383;-83
2023/04/11 06:45:26;;;;;;;7.70;6.25;;;8.80;99.90;;;;;;6122949;23;20391;-84
2023/04/11 06:47:53;;;;;;;7.70;6.97;;;8.90;99.90;;;;;;6126241;23;20375;-84
2023/04/11 06:50:20;;;;;;;7.32;6.43;;;9.10;99.90;;;;;;6125351;23;20383;-84
2023/04/11 06:52:47;;;;;;;6.90;6.20;;;9.30;99.90;;;;;;6126112;23;20443;-84
2023/04/11 06:55:14;;;;;;;6.18;5.57;;;9.40;99.50;;;;;;6125290;23;20399;-85
2023/04/11 06:57:42;;;;;;;6.18;5.50;;;9.60;98.90;;;;;;6125991;23;21259;-85
2023/04/11 07:00:11;;;;;;;5.85;5.25;;;9.80;97.40;;;;;;6126192;23;20372;-84
2023/04/11 07:02:38;;;;;;;5.53;5.03;;;10.10;95.30;;;;;;6125749;23;20364;-84
2023/04/11 07:05:08;;;;;;;6.22;5.63;;;10.30;94.60;;;;;;6123928;23;20446;-84
2023/04/11 07:07:35;;;;;;;7.20;6.50;;;10.50;93.60;;;;;;6124220;23;20384;-84
2023/04/11 07:10:03;;;;;;;7.75;6.30;;;10.70;93.10;;;;;;6124189;23;20387;-84
2023/04/11 07:12:30;;;;;;;6.60;5.97;;;11.00;92.40;;;;;;6124258;23;20406;-84
2023/04/11 07:14:56;;;;;;;8.23;6.30;;;11.20;91.00;;;;;;6122864;23;20383;-84
2023/04/11 07:17:23;;;;;;;9.63;6.13;;;11.30;90.30;;;;;;6122626;23;20399;-84
2023/04/11 07:19:50;;;;;;;5.47;4.90;;;11.40;87.30;;;;;;6122798;23;20382;-84
2023/04/11 07:22:18;;;;;;;5.72;5.03;;;11.60;85.80;;;;;;6123417;23;20443;-84
2023/04/11 07:24:45;;;;;;;7.57;5.73;;;11.70;83.90;;;;;;6121102;23;20368;-84
2023/04/11 07:27:13;;;;;;;5.70;5.00;;;11.90;80.80;;;;;;6122356;23;20750;-85
2023/04/11 07:29:40;;;;;;;7.13;5.15;;;12.10;79.50;;;;;;6121345;23;20372;-85
2023/04/11 07:32:07;;;;;;;5.82;4.50;;;12.20;77.20;;;;;;6122430;23;20403;-85
2023/04/11 07:34:34;;;;;;;5.32;4.72;;;12.40;75.00;;;;;;6121059;23;20384;-83
2023/04/11 07:37:01;;;;;;;6.22;4.82;;;12.50;72.70;;;;;;6122110;23;20403;-84
2023/04/11 07:39:28;;;;;;;5.10;4.40;;;12.70;72.10;;;;;;6122613;23;20382;-84
2023/04/11 07:41:55;;;;;;;4.80;4.30;;;12.80;69.50;;;;;;6122428;23;20749;-85
2023/04/11 07:44:22;;;;;;;5.13;3.80;;;12.90;69.20;;;;;;6121169;23;20778;-84
2023/04/11 07:46:50;;;;;;;6.85;5.15;;;13.00;68.80;;;;;;6122999;23;20374;-84
2023/04/11 07:49:16;;;;;;;3.80;3.33;;;13.10;67.50;;;;;;6122645;23;20380;-84
2023/04/11 07:51:43;;;;;;;5.67;4.00;;;13.30;68.00;;;;;;6121602;23;20431;-84
2023/04/11 07:54:11;;;;;;;4.33;3.93;;;13.40;66.10;;;;;;6122556;23;20376;-84
2023/04/11 07:56:38;;;;;;;3.97;3.53;;;13.50;65.60;;;;;;6122040;23;20375;-85
2023/04/11 07:59:05;;;;;;;4.60;3.50;;;13.70;64.20;;;;;;6125097;23;20434;-84
2023/04/11 08:01:32;;;;;;;4.78;3.80;;;13.90;63.40;;;;;;6123417;23;20932;-84
2023/04/11 08:04:00;;;;;;;5.32;3.72;;;14.10;61.40;;;;;;6123674;23;20387;-84
2023/04/11 08:06:27;;;;;;;5.70;4.03;;;14.30;61.00;;;;;;6123036;23;20391;-85
2023/04/11 08:08:55;;;;;;;5.30;4.40;;;14.50;60.40;;;;;;6124259;23;20434;-85
2023/04/11 08:11:22;;;;;;;4.50;4.10;;;14.70;60.00;;;;;;6123631;23;20427;-84
2023/04/11 08:13:49;;;;;;;5.47;4.60;;;14.90;59.10;;;;;;6111452;23;20438;-85
2023/04/11 08:16:16;;;;;;;5.25;4.60;;;15.10;58.50;;;;;;6123564;23;20376;-84
2023/04/11 08:18:44;;;;;;;5.05;4.55;;;15.30;58.10;;;;;;6123001;23;20430;-85
2023/04/11 08:21:11;;;;;;;6.90;5.40;;;15.50;57.70;;;;;;6123854;23;20375;-84
2023/04/11 08:23:38;;;;;;;6.53;4.85;;;15.70;57.00;;;;;;6123076;23;20367;-85
2023/04/11 08:26:07;;;;;;;7.10;5.63;;;15.90;55.70;;;;;;6123175;23;20372;-84
2023/04/11 08:28:34;;;;;;;7.40;5.93;;;16.00;53.70;;;;;;6123267;23;20749;-83
2023/04/11 08:31:02;;;;;;;8.52;6.05;;;16.20;52.50;;;;;;6123290;23;20422;-84
2023/04/11 08:33:30;;;;;;;8.82;6.50;;;16.30;51.20;;;;;;6122987;23;20374;-84
2023/04/11 08:35:57;;;;;;;8.15;5.88;;;16.50;50.50;;;;;;6123682;23;20707;-84
2023/04/11 08:38:24;;;;;;;10.13;7.03;;;16.50;49.60;;;;;;6123833;23;20676;-84
2023/04/11 08:40:50;;;;;;;8.85;6.32;;;16.60;49.30;;;;;;6123043;23;20399;-84
2023/04/11 08:43:18;;;;;;;9.55;6.45;;;16.60;48.90;;;;;;6125089;23;20402;-85
2023/04/11 08:45:45;;;;;;;8.10;5.97;;;16.60;48.20;;;;;;6122916;23;20407;-84
2023/04/11 08:48:12;;;;;;;9.43;7.43;;;16.70;48.20;;;;;;6123733;23;20455;-84
2023/04/11 08:50:42;;;;;;;9.13;5.75;;;16.80;47.60;;;;;;6123865;23;20376;-84
2023/04/11 08:53:10;;;;;;;8.57;6.17;;;16.80;47.80;;;;;;6123726;23;20403;-83
2023/04/11 08:55:45;;;;;;;7.75;6.15;;;16.90;47.40;;;;;;6122507;23;20379;-83
2023/04/11 08:58:12;;;;;;;9.50;7.10;;;17.00;47.40;;;;;;6122887;23;20376;-84
2023/04/11 09:00:41;;;;;;;10.02;7.22;;;17.10;46.50;;;;;;6122602;23;20372;-83
2023/04/11 09:03:10;;;;;;;9.93;7.68;;;17.10;46.50;;;;;;6123264;23;20376;-84
2023/04/11 09:05:39;;;;;;;11.05;7.50;;;17.00;46.90;;;;;;6122289;23;20451;-84
2023/04/11 09:08:09;;;;;;;7.80;6.23;;;17.00;46.50;;;;;;6122811;23;20387;-84
2023/04/11 09:10:41;;;;;;;7.25;6.13;;;16.90;47.50;;;;;;6121792;23;20380;-84
2023/04/11 09:13:23;;;;;;;9.40;6.72;;;17.00;48.00;;;;;;6123247;23;20452;-85
2023/04/11 09:16:09;;;;;;;7.78;5.78;;;17.20;47.60;;;;;;6121569;23;20368;-84
2023/04/11 09:18:38;;;;;;;7.87;5.90;;;17.40;46.80;;;;;;6122887;23;20953;-84
2023/04/11 09:21:15;;;;;;;9.03;6.37;;;17.60;46.70;;;;;;6124259;23;20452;-84
2023/04/11 09:23:42;;;;;;;7.90;6.40;;;17.70;45.90;;;;;;6122793;23;20379;-85
2023/04/11 09:26:11;;;;;;;9.38;7.03;;;17.90;46.30;;;;;;6122328;23;20431;-85
2023/04/11 09:28:55;;;;;;;7.95;6.30;;;18.00;45.70;;;;;;6146686;23;20458;-84
2023/04/11 09:31:41;;;;;;;7.00;5.63;;;18.10;45.90;;;;;;6122903;23;20845;-84
2023/04/11 09:34:08;;;;;;;10.80;7.63;;;18.20;45.90;;;;;;6121541;23;20388;-86
2023/04/11 09:36:35;;;;;;;6.47;5.80;;;18.30;44.50;;;;;;6123236;23;20383;-85
2023/04/11 09:39:23;;;;;;;5.75;5.15;;;18.20;45.10;;;;;;6121935;23;20485;-85
2023/04/11 09:41:51;;;;;;;7.10;5.60;;;18.20;45.40;;;;;;6122333;23;20430;-86
2023/04/11 09:44:18;;;;;;;7.25;6.40;;;18.30;45.50;;;;;;6122557;23;20399;-85
2023/04/11 09:46:58;;;;;;;7.40;6.25;;;18.50;45.70;;;;;;6121659;23;20372;-84
2023/04/11 09:49:25;;;;;;;6.97;5.82;;;18.70;44.80;;;;;;6122558;23;20376;-85
2023/04/11 09:51:53;;;;;;;7.53;6.18;;;18.70;43.50;;;;;;6122223;23;20387;-85
2023/04/11 09:54:23;;;;;;;5.30;4.63;;;18.80;43.60;;;;;;6122547;23;20372;-85
2023/04/11 09:56:50;;;;;;;8.53;6.37;;;18.80;44.30;;;;;;6122118;23;20384;-85
2023/04/11 09:59:20;;;;;;;8.35;6.22;;;19.00;44.00;;;;;;6123128;23;20427;-86
2023/04/11 10:01:49;;;;;;;5.95;5.35;;;19.10;42.80;;;;;;6121884;23;20380;-85
2023/04/11 10:04:16;;;;;;;5.50;4.53;;;19.20;42.70;;;;;;6122743;23;20860;-85
2023/04/11 10:07:07;;;;;;;4.97;4.23;;;19.30;43.20;;;;;;6122729;23;20399;-85
2023/04/11 10:09:39;;;;;;;4.60;4.05;;;19.50;43.10;;;;;;6110173;23;20368;-85
2023/04/11 10:12:06;;;;;;;5.95;4.78;;;19.70;42.40;;;;;;6122638;23;20376;-85
2023/04/11 10:14:40;;;;;;;7.77;6.60;;;19.90;41.50;;;;;;6121947;23;20367;-85
2023/04/11 10:17:18;;;;;;;7.03;6.33;;;20.00;40.70;;;;;;6122563;23;20376;-85
2023/04/11 10:19:58;;;;;;;6.60;5.90;;;20.10;40.80;;;;;;6109709;23;20476;-85
2023/04/11 10:22:40;;;;;;;5.82;5.30;;;20.20;41.00;;;;;;6120695;23;20391;-85
2023/04/11 10:25:17;;;;;;;5.93;4.82;;;20.40;40.50;;;;;;6121981;23;20438;-85
2023/04/11 10:27:49;;;;;;;5.07;4.45;;;20.40;38.80;;;;;;6121749;23;20387;-84
2023/04/11 10:30:16;;;;;;;4.95;4.45;;;20.40;38.60;;;;;;6122741;23;20711;-86
2023/04/11 10:33:08;;;;;;;4.82;4.32;;;20.50;38.30;;;;;;6123044;23;20371;-86
2023/04/11 10:35:54;;;;;;;4.65;4.13;;;20.60;38.20;;;;;;6121218;23;20497;-86
2023/04/11 10:38:39;;;;;;;5.57;5.07;;;20.70;38.50;;;;;;6122499;23;20379;-86
2023/04/11 10:41:17;;;;;;;4.47;4.07;;;20.90;38.30;;;;;;6109947;23;20406;-86
2023/04/11 10:43:45;;;;;;;4.65;4.25;;;20.80;37.60;;;;;;6121038;23;20380;-85
2023/04/11 10:46:30;;;;;;;3.90;3.13;;;20.80;37.90;;;;;;6122450;23;20383;-86
2023/04/11 10:48:59;;;;;;;6.68;5.95;;;20.90;38.40;;;;;;6120923;23;20378;-85
2023/04/11 10:51:28;;;;;;;6.10;5.50;;;21.10;37.20;;;;;;6122374;23;20375;-85
2023/04/11 10:53:58;;;;;;;7.38;6.68;;;21.00;37.30;;;;;;6121302;23;20376;-86
2023/04/11 10:56:47;;;;;;;6.07;5.47;;;21.00;37.70;;;;;;6122656;23;20754;-86
2023/04/11 10:59:35;;;;;;;4.20;3.80;;;20.90;37.00;;;;;;6133620;23;20676;-86
2023/04/11 11:02:02;;;;;;;6.78;5.97;;;21.00;37.80;;;;;;6121225;23;20443;-85
2023/04/11 11:04:34;;;;;;;7.10;6.07;;;21.10;37.70;;;;;;6123752;23;20372;-84
2023/04/11 11:07:04;;;;;;;6.03;5.43;;;20.90;36.40;;;;;;6121544;23;21174;-84
2023/04/11 11:09:32;;;;;;;12.45;9.45;;;20.80;37.30;;;;;;6122590;23;20368;-85
2023/04/11 11:12:09;;;;;;;9.17;7.13;;;20.70;38.60;;;;;;6121431;23;20435;-83
2023/04/11 11:14:36;;;;;;;17.10;10.10;;;20.60;37.90;;;;;;6124557;23;20434;-83
2023/04/11 11:17:04;;;;;;;15.95;9.02;;;20.50;37.40;;;;;;6121145;23;20451;-83
2023/04/11 11:19:31;;;;;;;30.83;14.30;;;20.50;38.40;;;;;;6122116;23;20376;-84
2023/04/11 11:22:05;;;;;;;30.02;14.05;;;20.40;37.80;;;;;;6121197;23;20392;-82
2023/04/11 11:24:32;;;;;;;145.63;29.63;;;20.40;38.40;;;;;;6121681;23;20379;-82
2023/04/11 11:26:59;;;;;;;37.90;11.48;;;20.60;39.30;;;;;;6121676;23;20422;-85
2023/04/11 11:29:44;;;;;;;7.78;5.55;;;20.80;39.40;;;;;;6121736;23;20451;-86
2023/04/11 11:32:26;;;;;;;5.82;4.65;;;21.10;38.30;;;;;;6121886;23;20577;-85
2023/04/11 11:34:54;;;;;;;8.85;6.68;;;21.30;37.20;;;;;;6123409;23;20456;-82
2023/04/11 11:37:22;;;;;;;6.65;5.95;;;21.30;36.60;;;;;;6125425;23;20392;-84
2023/04/11 11:39:49;;;;;;;6.65;5.53;;;21.10;36.60;;;;;;6124223;23;20425;-86
2023/04/11 11:42:16;;;;;;;6.20;5.43;;;21.00;37.00;;;;;;6124655;23;20394;-85
2023/04/11 11:44:43;;;;;;;5.45;4.95;;;21.00;37.50;;;;;;6124246;23;20787;-84
2023/04/11 11:47:13;;;;;;;5.32;4.30;;;21.00;38.30;;;;;;6123209;23;20380;-83
2023/04/11 11:49:55;;;;;;;5.88;5.35;;;21.10;37.70;;;;;;6123713;23;20403;-83
2023/04/11 11:52:33;;;;;;;6.72;5.97;;;21.30;37.00;;;;;;6111263;23;20363;-83
2023/04/11 11:55:08;;;;;;;5.90;5.30;;;21.30;36.40;;;;;;6122669;23;20391;-84
2023/04/11 11:57:42;;;;;;;7.28;5.97;;;21.10;36.80;;;;;;6123957;23;20403;-83
2023/04/11 12:00:10;;;;;;;6.10;5.50;;;21.00;36.30;;;;;;6123121;23;20376;-84
2023/04/11 12:02:38;;;;;;;6.05;5.45;;;21.00;37.20;;;;;;6124285;23;20400;-84
2023/04/11 12:05:06;;;;;;;5.20;4.70;;;21.00;37.50;;;;;;6122693;23;20395;-84
2023/04/11 12:07:37;;;;;;;5.15;4.75;;;21.20;37.70;;;;;;6124074;23;20374;-84
2023/04/11 12:10:07;;;;;;;7.20;4.97;;;21.40;37.90;;;;;;6123592;23;20375;-84
2023/04/11 12:12:35;;;;;;;6.47;5.88;;;21.60;38.00;;;;;;6124050;23;20395;-84
2023/04/11 12:15:10;;;;;;;4.57;4.18;;;21.70;35.50;;;;;;6123010;23;20379;-84
2023/04/11 12:17:37;;;;;;;5.72;4.00;;;21.80;37.10;;;;;;6125370;23;20411;-83
2023/04/11 12:20:06;;;;;;;4.68;4.13;;;21.90;36.70;;;;;;6123480;23;20450;-81
2023/04/11 12:22:34;;;;;;;5.78;5.18;;;21.90;36.20;;;;;;6123686;23;20383;-82
2023/04/11 12:25:11;;;;;;;5.40;4.93;;;22.10;36.20;;;;;;6123356;23;20391;-82
2023/04/11 12:27:39;;;;;;;5.05;4.40;;;22.30;35.70;;;;;;6122303;23;20833;-81
2023/04/11 12:30:07;;;;;;;4.23;3.83;;;22.50;35.20;;;;;;6123031;23;20683;-82
2023/04/11 12:32:35;;;;;;;3.58;3.28;;;22.60;35.50;;;;;;6123362;23;20706;-81
2023/04/11 12:35:04;;;;;;;4.63;4.20;;;22.70;35.50;;;;;;6122793;23;20388;-82
2023/04/11 12:37:32;;;;;;;3.45;3.15;;;22.90;35.10;;;;;;6124843;23;20376;-81
2023/04/11 12:39:59;;;;;;;3.72;3.40;;;23.00;35.70;;;;;;6123383;23;20447;-81
2023/04/11 12:42:26;;;;;;;4.80;4.30;;;23.10;35.10;;;;;;6122694;23;20372;-81
2023/04/11 12:44:53;;;;;;;4.30;3.60;;;23.20;34.70;;;;;;6122092;23;20375;-83
2023/04/11 12:47:22;;;;;;;3.90;3.60;;;23.30;34.50;;;;;;6122537;23;20372;-81
2023/04/11 12:49:50;;;;;;;4.13;3.72;;;23.40;34.40;;;;;;6123107;23;20376;-81
2023/04/11 12:52:17;;;;;;;5.30;3.90;;;23.50;33.60;;;;;;6122491;23;20400;-80
2023/04/11 12:54:43;;;;;;;5.23;4.73;;;23.50;34.00;;;;;;6123513;23;20834;-81
2023/04/11 12:57:11;;;;;;;4.93;3.90;;;23.40;32.70;;;;;;6122704;23;20372;-84
2023/04/11 12:59:38;;;;;;;5.00;4.50;;;23.30;33.60;;;;;;6123722;23;20376;-82
2023/04/11 13:02:06;;;;;;;5.30;4.20;;;23.20;33.40;;;;;;6122479;23;20392;-81
2023/04/11 13:04:33;;;;;;;5.50;4.57;;;23.30;33.30;;;;;;6123249;23;20411;-80
2023/04/11 13:07:00;;;;;;;4.53;3.63;;;23.30;33.70;;;;;;6123166;23;20376;-80
2023/04/11 13:09:28;;;;;;;5.03;4.57;;;23.30;34.10;;;;;;6146360;23;20368;-80
2023/04/11 13:11:56;;;;;;;4.70;3.92;;;23.40;33.20;;;;;;6123556;23;20376;-82
2023/04/11 13:14:23;;;;;;;5.78;5.18;;;23.40;33.20;;;;;;6122067;23;22598;-81
2023/04/11 13:16:50;;;;;;;3.00;2.80;;;23.20;32.80;;;;;;6123801;23;20372;-82
2023/04/11 13:19:17;;;;;;;3.03;2.72;;;23.20;34.00;;;;;;6123547;23;20376;-82
2023/04/11 13:21:44;;;;;;;5.05;3.85;;;23.20;34.40;;;;;;6123257;23;20711;-82
2023/04/11 13:24:10;;;;;;;4.40;4.00;;;23.30;33.90;;;;;;6122038;23;20442;-81
2023/04/11 13:26:38;;;;;;;4.45;3.70;;;23.10;33.40;;;;;;6123357;23;20386;-81
2023/04/11 13:29:06;;;;;;;3.08;2.70;;;23.10;34.30;;;;;;6123278;23;20380;-82
2023/04/11 13:31:33;;;;;;;4.30;3.90;;;23.10;34.30;;;;;;6123100;23;20407;-82
2023/04/11 13:34:00;;;;;;;3.40;3.07;;;23.10;33.70;;;;;;6121936;23;20710;-81
2023/04/11 13:36:28;;;;;;;4.05;3.38;;;23.20;34.00;;;;;;6121915;23;20893;-81
2023/04/11 13:38:56;;;;;;;3.78;3.40;;;23.30;33.90;;;;;;6122584;23;20387;-81
2023/04/11 13:41:24;;;;;;;5.72;4.97;;;23.30;33.40;;;;;;6122338;23;20376;-81
2023/04/11 13:43:51;;;;;;;4.85;4.35;;;23.10;32.70;;;;;;6122079;23;20435;-82
2023/04/11 13:46:20;;;;;;;4.35;3.95;;;22.90;33.60;;;;;;6122168;23;20388;-81
2023/04/11 13:48:47;;;;;;;3.85;3.28;;;22.90;34.00;;;;;;6121996;23;20376;-81
2023/04/11 13:51:14;;;;;;;4.07;3.00;;;22.90;34.80;;;;;;6121949;23;20710;-81
2023/04/11 13:53:41;;;;;;;4.22;3.83;;;23.00;35.50;;;;;;6122805;23;20427;-82
2023/04/11 13:56:08;;;;;;;4.47;4.07;;;23.20;34.00;;;;;;6121931;23;20688;-82
2023/04/11 13:58:35;;;;;;;4.18;3.78;;;23.30;33.40;;;;;;6122633;23;20368;-81
2023/04/11 14:01:03;;;;;;;4.63;4.03;;;23.40;33.60;;;;;;6122641;23;20388;-82
2023/04/11 14:03:32;;;;;;;4.63;3.60;;;23.50;33.20;;;;;;6121881;23;20382;-81
2023/04/11 14:06:00;;;;;;;3.67;3.00;;;23.70;33.30;;;;;;6121757;23;20380;-82
2023/04/11 14:08:27;;;;;;;3.60;3.30;;;23.90;32.90;;;;;;6121760;23;21399;-82
2023/04/11 14:10:54;;;;;;;3.47;3.17;;;24.00;33.00;;;;;;6122485;23;20391;-82
2023/04/11 14:13:22;;;;;;;3.05;2.63;;;24.10;32.50;;;;;;6121976;23;20383;-83
2023/04/11 14:15:49;;;;;;;3.33;3.03;;;24.10;33.80;;;;;;6122355;23;20438;-82
2023/04/11 14:18:34;;;;;;;5.40;4.05;;;24.20;32.30;;;;;;6143326;23;20376;-82
2023/04/11 14:21:02;;;;;;;4.60;3.38;;;24.10;31.90;;;;;;6124340;23;20403;-81
2023/04/11 14:23:29;;;;;;;4.05;3.75;;;24.20;32.10;;;;;;6146297;23;20443;-82